Time;durP1;ratioP1;P1;durP2;ratioP2;P2;SDS_P1;SDS_P2;PMS_P1;PMS_P2;Temp;Humidity;BMP_temperature;BMP_pressure;BME280_temperature;BME280_humidity;BME280_pressure;Samples;Min_cycle;Max_cycle;Signal;HPM_P1;HPM_P2
2024/02/02 00:00:28;;;;;;;4.40;1.90;;;5.00;99.90;;;;;;5000878;28;20241;-73
2024/02/02 00:02:54;;;;;;;7.23;1.73;;;5.10;99.90;;;;;;5005744;28;20213;-72
2024/02/02 00:05:20;;;;;;;7.43;1.80;;;5.10;99.90;;;;;;5006032;28;20523;-74
2024/02/02 00:07:46;;;;;;;3.00;1.20;;;5.00;99.90;;;;;;5005669;28;20205;-72
2024/02/02 00:10:11;;;;;;;3.60;1.70;;;5.00;99.90;;;;;;5006471;28;20649;-72
2024/02/02 00:12:37;;;;;;;2.70;1.80;;;5.00;99.90;;;;;;5006897;28;20303;-73
2024/02/02 00:15:04;;;;;;;2.43;2.17;;;5.00;99.90;;;;;;5008103;28;20658;-73
2024/02/02 00:17:33;;;;;;;2.23;2.07;;;5.00;99.90;;;;;;5007206;28;20313;-72
2024/02/02 00:19:59;;;;;;;3.43;2.10;;;5.00;99.90;;;;;;5004111;28;20551;-72
2024/02/02 00:22:25;;;;;;;3.20;2.00;;;5.00;99.90;;;;;;5005671;28;20551;-72
2024/02/02 00:24:51;;;;;;;4.57;2.30;;;5.00;99.90;;;;;;5003880;28;20222;-73
2024/02/02 00:27:18;;;;;;;1.63;1.53;;;4.90;99.90;;;;;;5006560;28;20248;-73
2024/02/02 00:29:45;;;;;;;2.13;1.80;;;4.80;99.90;;;;;;4972629;28;20476;-72
2024/02/02 00:32:14;;;;;;;3.17;1.70;;;4.90;99.90;;;;;;4992662;28;20449;-72
2024/02/02 00:34:41;;;;;;;5.80;2.33;;;4.80;99.90;;;;;;4996776;28;20461;-73
2024/02/02 00:37:07;;;;;;;2.60;1.37;;;4.50;99.90;;;;;;5003750;28;20449;-73
2024/02/02 00:39:33;;;;;;;3.10;1.40;;;4.40;99.90;;;;;;4973619;28;20557;-72
2024/02/02 00:41:59;;;;;;;4.80;1.53;;;4.60;99.90;;;;;;4972087;28;20469;-73
2024/02/02 00:44:25;;;;;;;5.27;1.77;;;4.60;99.90;;;;;;4984440;28;20459;-72
2024/02/02 00:46:51;;;;;;;2.60;1.40;;;4.60;99.90;;;;;;4981890;28;20226;-73
2024/02/02 00:49:17;;;;;;;1.90;1.70;;;4.70;99.90;;;;;;4982163;28;21030;-73
2024/02/02 00:51:43;;;;;;;4.43;1.60;;;4.70;99.90;;;;;;4986345;28;20229;-72
2024/02/02 00:54:08;;;;;;;5.37;2.43;;;4.80;99.90;;;;;;5000270;28;20209;-73
2024/02/02 00:56:34;;;;;;;4.90;2.40;;;4.80;99.90;;;;;;4992115;28;20218;-73
2024/02/02 00:59:00;;;;;;;2.27;2.10;;;4.80;99.90;;;;;;5000351;28;20218;-73
2024/02/02 01:01:25;;;;;;;3.70;2.53;;;4.70;99.90;;;;;;4991296;28;20245;-72
2024/02/02 01:03:51;;;;;;;3.80;2.00;;;4.70;99.90;;;;;;4999127;28;20301;-73
2024/02/02 01:06:17;;;;;;;4.73;2.27;;;4.70;99.90;;;;;;4993983;28;20225;-73
2024/02/02 01:08:43;;;;;;;5.70;2.63;;;4.40;99.90;;;;;;5008883;28;20781;-73
2024/02/02 01:11:08;;;;;;;9.03;2.53;;;4.30;99.90;;;;;;4994948;28;20222;-73
2024/02/02 01:13:34;;;;;;;2.77;2.00;;;4.20;99.90;;;;;;5011095;28;20224;-72
2024/02/02 01:16:00;;;;;;;2.33;2.13;;;4.20;99.90;;;;;;5011612;28;20221;-73
2024/02/02 01:18:26;;;;;;;4.00;2.53;;;4.30;99.90;;;;;;5013960;28;20683;-72
2024/02/02 01:20:52;;;;;;;5.27;2.23;;;4.30;99.90;;;;;;5011805;28;20459;-73
2024/02/02 01:23:17;;;;;;;3.53;2.27;;;4.40;99.90;;;;;;5011044;28;20218;-73
2024/02/02 01:25:43;;;;;;;5.20;2.40;;;4.40;99.90;;;;;;5034066;28;20313;-72
2024/02/02 01:28:09;;;;;;;3.23;2.33;;;4.40;99.90;;;;;;4992783;28;20217;-73
2024/02/02 01:30:34;;;;;;;4.00;2.80;;;4.20;99.90;;;;;;5005934;28;20222;-73
2024/02/02 01:33:00;;;;;;;3.10;2.27;;;4.20;99.90;;;;;;5014238;28;20681;-73
2024/02/02 01:35:26;;;;;;;5.60;2.60;;;4.30;99.90;;;;;;4994326;28;20217;-73
2024/02/02 01:37:52;;;;;;;4.27;2.43;;;4.40;99.90;;;;;;5009436;28;20226;-73
2024/02/02 01:40:19;;;;;;;4.90;2.37;;;4.40;99.90;;;;;;4980234;28;20554;-73
2024/02/02 01:42:45;;;;;;;3.80;2.37;;;4.50;99.90;;;;;;5022346;28;20227;-72
2024/02/02 01:45:11;;;;;;;3.87;2.20;;;4.40;99.90;;;;;;5014633;28;20477;-73
2024/02/02 01:47:37;;;;;;;4.50;2.27;;;4.30;99.90;;;;;;5027710;28;20514;-73
2024/02/02 01:50:03;;;;;;;2.23;1.83;;;4.30;99.90;;;;;;4984190;28;20750;-74
2024/02/02 01:52:29;;;;;;;1.97;1.83;;;4.40;99.90;;;;;;4993505;28;20230;-73
2024/02/02 01:54:56;;;;;;;7.40;2.60;;;4.30;99.90;;;;;;4988504;28;20472;-73
2024/02/02 01:57:21;;;;;;;5.83;1.97;;;4.40;99.90;;;;;;4991854;28;20492;-73
2024/02/02 01:59:48;;;;;;;3.53;2.40;;;4.40;99.90;;;;;;4988064;28;20468;-73
2024/02/02 02:02:14;;;;;;;3.20;2.30;;;4.50;99.90;;;;;;4982621;28;20211;-73
2024/02/02 02:04:43;;;;;;;4.37;3.10;;;4.50;99.90;;;;;;4996014;28;20828;-73
2024/02/02 02:07:09;;;;;;;4.00;2.07;;;4.40;99.90;;;;;;4987431;28;20836;-74
2024/02/02 02:09:35;;;;;;;7.37;2.07;;;4.40;99.90;;;;;;4987193;28;21008;-73
2024/02/02 02:12:02;;;;;;;4.90;2.07;;;4.40;99.90;;;;;;4991929;28;20446;-73
2024/02/02 02:14:29;;;;;;;1.90;1.70;;;4.40;99.90;;;;;;4975530;28;20305;-72
2024/02/02 02:16:54;;;;;;;3.23;1.60;;;4.40;99.90;;;;;;4986288;28;20455;-74
2024/02/02 02:19:20;;;;;;;1.83;1.67;;;4.40;99.90;;;;;;5009899;28;20451;-73
2024/02/02 02:21:46;;;;;;;7.57;2.10;;;4.40;99.90;;;;;;5023963;28;20210;-72
2024/02/02 02:24:12;;;;;;;2.37;1.40;;;4.50;99.90;;;;;;5011998;28;20213;-73
2024/02/02 02:26:39;;;;;;;3.10;2.03;;;4.40;99.90;;;;;;5010521;28;20228;-72
2024/02/02 02:29:04;;;;;;;3.20;1.97;;;4.30;99.90;;;;;;5009284;28;20500;-73
2024/02/02 02:31:30;;;;;;;2.83;1.63;;;4.10;99.90;;;;;;5010421;28;20558;-73
2024/02/02 02:33:56;;;;;;;6.33;2.13;;;4.10;99.90;;;;;;4975963;28;20217;-74
2024/02/02 02:36:22;;;;;;;3.67;1.93;;;4.10;99.90;;;;;;5017252;28;20557;-73
2024/02/02 02:38:48;;;;;;;4.20;1.40;;;4.20;99.90;;;;;;5002370;28;20222;-73
2024/02/02 02:41:14;;;;;;;1.67;1.57;;;4.10;99.90;;;;;;5007995;28;20214;-73
2024/02/02 02:43:40;;;;;;;4.10;2.10;;;4.20;99.90;;;;;;4989493;28;20451;-72
2024/02/02 02:46:07;;;;;;;5.73;1.90;;;4.30;99.90;;;;;;4992732;28;20280;-73
2024/02/02 02:48:33;;;;;;;5.43;2.00;;;4.40;99.90;;;;;;4978081;28;20809;-74
2024/02/02 02:50:59;;;;;;;4.10;2.40;;;4.40;99.90;;;;;;5005454;28;20897;-73
2024/02/02 02:53:25;;;;;;;2.70;2.17;;;4.50;99.90;;;;;;4995635;28;20544;-73
2024/02/02 02:55:50;;;;;;;1.57;1.40;;;4.50;99.90;;;;;;4995114;28;20217;-73
2024/02/02 02:58:16;;;;;;;5.73;1.67;;;4.60;99.90;;;;;;4983086;28;20224;-72
2024/02/02 03:00:43;;;;;;;2.20;1.50;;;4.60;99.90;;;;;;4987628;28;20267;-72
2024/02/02 03:03:08;;;;;;;2.03;1.90;;;4.60;99.90;;;;;;4985492;28;20645;-72
2024/02/02 03:05:34;;;;;;;7.33;3.27;;;4.60;99.90;;;;;;4981979;28;20481;-72
2024/02/02 03:08:00;;;;;;;10.80;2.50;;;4.50;99.90;;;;;;4978258;28;20351;-72
2024/02/02 03:10:25;;;;;;;8.30;2.33;;;4.60;99.90;;;;;;4989417;28;20226;-72
2024/02/02 03:12:52;;;;;;;4.93;1.70;;;4.50;99.90;;;;;;4987242;28;20221;-73
2024/02/02 03:15:18;;;;;;;2.50;1.73;;;4.50;99.90;;;;;;4991531;28;20241;-73
2024/02/02 03:17:45;;;;;;;2.73;2.03;;;4.60;99.90;;;;;;5013440;28;20454;-73
2024/02/02 03:20:11;;;;;;;6.10;1.87;;;4.60;99.90;;;;;;5032129;28;20465;-73
2024/02/02 03:22:38;;;;;;;2.60;1.60;;;4.60;99.90;;;;;;4994744;28;20851;-73
2024/02/02 03:25:05;;;;;;;6.57;2.07;;;4.60;99.90;;;;;;4984900;28;20830;-73
2024/02/02 03:27:30;;;;;;;5.87;1.80;;;4.60;99.90;;;;;;5006305;28;20920;-72
2024/02/02 03:29:56;;;;;;;4.93;2.03;;;4.60;99.90;;;;;;5012672;28;22949;-73
2024/02/02 03:32:22;;;;;;;5.17;2.10;;;4.60;99.90;;;;;;4997217;28;20257;-73
2024/02/02 03:34:47;;;;;;;2.03;1.80;;;4.60;99.90;;;;;;4981933;28;20222;-72
2024/02/02 03:37:13;;;;;;;2.90;1.40;;;4.60;99.90;;;;;;4989610;28;20377;-72
2024/02/02 03:39:39;;;;;;;1.80;1.50;;;4.60;99.90;;;;;;4996060;28;20214;-73
2024/02/02 03:42:05;;;;;;;1.87;1.77;;;4.60;99.90;;;;;;5004833;28;20213;-73
2024/02/02 03:44:31;;;;;;;1.97;1.50;;;4.50;99.90;;;;;;4980844;28;20345;-73
2024/02/02 03:46:57;;;;;;;4.07;1.80;;;4.60;99.90;;;;;;4985318;28;23625;-73
2024/02/02 03:49:23;;;;;;;2.33;1.60;;;4.60;99.90;;;;;;4983933;28;20493;-73
2024/02/02 03:51:48;;;;;;;2.67;1.77;;;4.60;99.90;;;;;;4985135;28;20218;-73
2024/02/02 03:54:14;;;;;;;5.90;2.20;;;4.60;99.90;;;;;;4978228;28;20211;-73
2024/02/02 03:56:42;;;;;;;2.37;2.17;;;4.50;99.90;;;;;;4979306;28;20583;-72
2024/02/02 03:59:09;;;;;;;4.23;2.53;;;4.40;99.90;;;;;;4989930;28;20211;-74
2024/02/02 04:01:35;;;;;;;4.40;1.97;;;4.40;99.90;;;;;;4989362;28;20456;-72
2024/02/02 04:04:00;;;;;;;4.70;2.27;;;4.50;99.90;;;;;;4988274;28;20445;-73
2024/02/02 04:06:27;;;;;;;4.30;2.00;;;4.60;99.90;;;;;;5004301;28;20216;-72
2024/02/02 04:08:52;;;;;;;4.07;1.60;;;4.60;99.90;;;;;;5006809;28;20214;-73
2024/02/02 04:11:18;;;;;;;12.33;2.90;;;4.70;99.90;;;;;;4991473;28;20515;-73
2024/02/02 04:13:44;;;;;;;7.17;2.47;;;4.70;99.90;;;;;;5006361;28;20246;-73
2024/02/02 04:16:10;;;;;;;2.20;1.97;;;4.80;99.90;;;;;;5002027;28;20226;-73
2024/02/02 04:18:36;;;;;;;4.83;1.97;;;4.80;99.90;;;;;;4980574;28;20306;-72
2024/02/02 04:21:02;;;;;;;1.70;1.40;;;4.80;99.90;;;;;;4982927;28;20216;-73
2024/02/02 04:23:28;;;;;;;3.07;1.77;;;4.80;99.90;;;;;;4992913;28;20305;-72
2024/02/02 04:25:53;;;;;;;6.50;2.30;;;4.80;99.90;;;;;;4986718;28;20230;-72
2024/02/02 04:28:19;;;;;;;5.97;2.10;;;4.80;99.90;;;;;;4988713;28;20464;-72
2024/02/02 04:30:45;;;;;;;8.47;2.00;;;4.80;99.90;;;;;;4993299;28;20308;-71
2024/02/02 04:33:11;;;;;;;1.63;1.53;;;4.80;99.90;;;;;;4986693;28;20449;-73
2024/02/02 04:35:38;;;;;;;2.63;1.90;;;4.70;99.90;;;;;;4994023;28;20465;-73
2024/02/02 04:38:04;;;;;;;5.73;2.30;;;4.80;99.90;;;;;;4999095;28;20226;-73
2024/02/02 04:40:30;;;;;;;6.07;1.80;;;4.80;99.90;;;;;;4989950;28;20462;-72
2024/02/02 04:42:57;;;;;;;5.33;2.23;;;4.70;99.90;;;;;;4993693;28;20518;-73
2024/02/02 04:45:23;;;;;;;5.47;1.63;;;4.60;99.90;;;;;;4989151;28;20460;-73
2024/02/02 04:47:49;;;;;;;7.70;1.90;;;4.60;99.90;;;;;;4993442;28;20998;-72
2024/02/02 04:50:15;;;;;;;5.80;1.97;;;4.60;99.90;;;;;;5003117;28;20452;-73
2024/02/02 04:52:42;;;;;;;4.17;2.00;;;4.70;99.90;;;;;;5021957;28;20217;-73
2024/02/02 04:55:08;;;;;;;3.53;1.50;;;4.80;99.90;;;;;;4996588;28;20469;-73
2024/02/02 04:57:34;;;;;;;3.33;1.70;;;4.80;99.90;;;;;;4991286;28;20461;-73
2024/02/02 04:59:59;;;;;;;3.07;1.87;;;4.80;99.90;;;;;;5001659;28;20486;-72
2024/02/02 05:02:25;;;;;;;2.10;1.90;;;4.80;99.90;;;;;;4987105;28;20219;-72
2024/02/02 05:04:51;;;;;;;3.27;2.67;;;4.80;99.90;;;;;;5006487;28;20242;-73
2024/02/02 05:07:17;;;;;;;4.83;2.60;;;4.80;99.90;;;;;;5010272;28;20227;-72
2024/02/02 05:09:43;;;;;;;3.47;2.60;;;4.80;99.90;;;;;;5005581;28;20559;-73
2024/02/02 05:12:09;;;;;;;4.07;2.07;;;4.80;99.90;;;;;;5014520;28;20211;-72
2024/02/02 05:14:34;;;;;;;5.03;2.27;;;4.80;99.90;;;;;;4990569;28;20314;-72
2024/02/02 05:17:01;;;;;;;2.40;1.97;;;4.80;99.90;;;;;;4989563;28;20225;-72
2024/02/02 05:19:27;;;;;;;4.67;2.17;;;4.90;99.90;;;;;;4998787;28;20246;-73
2024/02/02 05:21:53;;;;;;;2.67;2.40;;;4.90;99.90;;;;;;4992897;28;20573;-71
2024/02/02 05:24:19;;;;;;;4.63;2.33;;;4.90;99.90;;;;;;4994098;28;20229;-71
2024/02/02 05:26:44;;;;;;;5.37;2.03;;;4.90;99.90;;;;;;4986660;28;20223;-72
2024/02/02 05:29:10;;;;;;;2.60;2.17;;;4.90;99.90;;;;;;4991202;28;20222;-73
2024/02/02 05:31:35;;;;;;;2.87;2.40;;;4.90;99.90;;;;;;4999282;28;20229;-72
2024/02/02 05:34:01;;;;;;;4.33;2.67;;;4.90;99.90;;;;;;4979270;28;20217;-71
2024/02/02 05:36:27;;;;;;;4.10;2.23;;;4.90;99.90;;;;;;5018639;28;20214;-73
2024/02/02 05:38:53;;;;;;;1.90;1.67;;;5.00;99.90;;;;;;4990595;28;20217;-73
2024/02/02 05:41:19;;;;;;;2.53;2.33;;;5.00;99.90;;;;;;5002501;28;20198;-73
2024/02/02 05:43:44;;;;;;;3.23;2.30;;;4.90;99.90;;;;;;4991064;28;20559;-72
2024/02/02 05:46:10;;;;;;;3.80;2.73;;;4.90;99.90;;;;;;5003685;28;20222;-73
2024/02/02 05:48:36;;;;;;;7.47;2.90;;;4.90;99.90;;;;;;4984214;28;20276;-72
2024/02/02 05:51:01;;;;;;;5.43;3.07;;;4.90;99.90;;;;;;5014905;28;20245;-73
2024/02/02 05:53:27;;;;;;;7.20;2.40;;;4.90;99.90;;;;;;4989583;28;20225;-72
2024/02/02 05:55:53;;;;;;;3.67;2.47;;;4.90;99.90;;;;;;4996146;28;20234;-72
2024/02/02 05:58:18;;;;;;;2.33;2.13;;;4.90;99.90;;;;;;4995974;28;20221;-73
2024/02/02 06:00:45;;;;;;;4.60;2.13;;;4.90;99.90;;;;;;4989159;28;20265;-70
2024/02/02 06:03:10;;;;;;;5.40;2.00;;;5.00;99.90;;;;;;4992842;28;20214;-71
2024/02/02 06:05:36;;;;;;;7.57;3.10;;;5.00;99.90;;;;;;5022931;28;20498;-73
2024/02/02 06:08:02;;;;;;;2.60;2.07;;;5.00;99.90;;;;;;5004025;28;20234;-73
2024/02/02 06:10:28;;;;;;;2.77;1.77;;;5.00;99.90;;;;;;4982963;28;20229;-70
2024/02/02 06:12:54;;;;;;;2.03;1.83;;;5.00;99.90;;;;;;4989864;28;20461;-73
2024/02/02 06:15:20;;;;;;;2.07;1.83;;;5.00;99.90;;;;;;5003341;28;20509;-73
2024/02/02 06:17:46;;;;;;;6.73;3.07;;;5.00;99.90;;;;;;5006521;28;20489;-72
2024/02/02 06:20:12;;;;;;;2.77;2.30;;;5.00;99.90;;;;;;4995720;28;20254;-70
2024/02/02 06:22:38;;;;;;;4.10;2.90;;;5.00;99.90;;;;;;4996163;28;20280;-71
2024/02/02 06:25:05;;;;;;;4.90;2.43;;;5.00;99.90;;;;;;4994345;28;20855;-73
2024/02/02 06:27:30;;;;;;;3.07;1.83;;;5.00;99.90;;;;;;4991878;28;20461;-70
2024/02/02 06:30:00;;;;;;;3.03;2.20;;;5.00;99.90;;;;;;5005259;28;20478;-73
2024/02/02 06:32:26;;;;;;;4.27;2.20;;;5.00;99.90;;;;;;5007633;28;20217;-72
2024/02/02 06:34:55;;;;;;;4.87;2.10;;;5.00;99.90;;;;;;5006583;28;20507;-73
2024/02/02 06:37:25;;;;;;;2.27;1.60;;;5.00;99.90;;;;;;5019284;28;20436;-73
2024/02/02 06:39:55;;;;;;;4.10;2.07;;;5.00;99.90;;;;;;5037036;28;20467;-72
2024/02/02 06:42:24;;;;;;;6.40;1.77;;;5.10;99.90;;;;;;5006839;28;20845;-73
2024/02/02 06:44:51;;;;;;;7.93;2.50;;;5.10;99.90;;;;;;4994352;28;20540;-73
2024/02/02 06:47:17;;;;;;;4.37;2.17;;;5.10;99.90;;;;;;4990625;28;20975;-72
2024/02/02 06:49:44;;;;;;;3.00;1.80;;;5.10;99.90;;;;;;4984071;28;20472;-72
2024/02/02 06:52:10;;;;;;;2.57;2.30;;;5.00;99.90;;;;;;5015793;28;20469;-73
2024/02/02 06:54:36;;;;;;;7.77;2.40;;;5.00;99.90;;;;;;5013019;28;20453;-73
2024/02/02 06:57:02;;;;;;;3.87;1.90;;;5.00;99.90;;;;;;5014793;28;20450;-73
2024/02/02 06:59:28;;;;;;;2.10;1.90;;;5.00;99.90;;;;;;4982887;28;20744;-73
2024/02/02 07:01:55;;;;;;;9.90;2.33;;;5.00;99.90;;;;;;4981630;28;20460;-73
2024/02/02 07:04:21;;;;;;;4.17;2.23;;;5.00;99.90;;;;;;4983440;28;20632;-72
2024/02/02 07:06:48;;;;;;;2.00;1.80;;;5.10;99.90;;;;;;4974120;28;20538;-74
2024/02/02 07:09:21;;;;;;;8.77;2.90;;;5.10;99.90;;;;;;4983374;28;20553;-73
2024/02/02 07:11:58;;;;;;;11.83;3.90;;;5.10;99.90;;;;;;4980584;28;20478;-73
2024/02/02 07:14:47;;;;;;;11.93;3.10;;;5.00;99.90;;;;;;4968091;28;20509;-73
2024/02/02 07:17:16;;;;;;;5.43;3.50;;;5.00;99.90;;;;;;4976774;28;20440;-73
2024/02/02 07:19:42;;;;;;;3.97;2.80;;;5.00;99.90;;;;;;4977919;28;20836;-73
2024/02/02 07:22:40;;;;;;;6.27;3.20;;;5.00;99.90;;;;;;4982219;28;20579;-73
2024/02/02 07:25:17;;;;;;;7.70;3.83;;;4.90;99.90;;;;;;4985288;28;20240;-73
2024/02/02 07:27:58;;;;;;;6.23;2.43;;;4.80;99.90;;;;;;4994662;28;20474;-73
2024/02/02 07:30:44;;;;;;;3.53;2.77;;;4.70;99.90;;;;;;5002184;28;20506;-73
2024/02/02 07:33:35;;;;;;;3.90;2.67;;;4.70;99.90;;;;;;5011963;28;20457;-72
2024/02/02 07:36:01;;;;;;;3.60;3.20;;;4.80;99.90;;;;;;4984369;28;20465;-72
2024/02/02 07:38:43;;;;;;;4.40;2.70;;;4.90;99.90;;;;;;4980869;28;20480;-73
2024/02/02 07:41:10;;;;;;;3.60;2.70;;;5.00;99.90;;;;;;5019590;28;20440;-73
2024/02/02 07:43:36;;;;;;;3.50;2.93;;;5.00;99.90;;;;;;5034883;28;20478;-73
2024/02/02 07:46:03;;;;;;;5.57;2.70;;;5.00;99.90;;;;;;5000602;28;20445;-73
2024/02/02 07:48:29;;;;;;;3.33;2.57;;;5.00;99.90;;;;;;5000093;28;20241;-74
2024/02/02 07:50:55;;;;;;;5.37;2.40;;;5.10;99.90;;;;;;5032711;28;20519;-73
2024/02/02 07:53:21;;;;;;;5.93;2.63;;;5.10;99.90;;;;;;5002155;28;20461;-73
2024/02/02 07:55:47;;;;;;;4.27;2.90;;;5.10;99.90;;;;;;5018140;28;20855;-72
2024/02/02 07:58:13;;;;;;;4.50;3.43;;;5.00;99.90;;;;;;5034565;28;20214;-72
2024/02/02 08:00:38;;;;;;;2.77;2.53;;;5.00;99.90;;;;;;5000564;28;20701;-73
2024/02/02 08:03:06;;;;;;;6.00;3.20;;;5.00;99.90;;;;;;4988697;28;20218;-73
2024/02/02 08:05:37;;;;;;;2.37;2.27;;;5.10;99.90;;;;;;5005285;28;20591;-72
2024/02/02 08:08:03;;;;;;;5.87;3.20;;;5.10;99.90;;;;;;5001415;28;21042;-73
2024/02/02 08:10:29;;;;;;;8.20;2.87;;;5.10;99.90;;;;;;5003632;28;20468;-72
2024/02/02 08:12:55;;;;;;;12.43;3.13;;;5.20;99.90;;;;;;5028134;28;20449;-72
2024/02/02 08:15:21;;;;;;;5.60;3.20;;;5.20;99.90;;;;;;4987653;28;21178;-74
2024/02/02 08:17:47;;;;;;;7.43;3.57;;;5.20;99.90;;;;;;5001914;28;20679;-73
2024/02/02 08:20:14;;;;;;;3.73;2.93;;;5.20;99.90;;;;;;4985412;28;20218;-73
2024/02/02 08:22:43;;;;;;;9.77;4.57;;;5.20;99.90;;;;;;4998149;28;20736;-73
2024/02/02 08:25:10;;;;;;;7.37;3.90;;;5.20;99.90;;;;;;4983736;28;20473;-72
2024/02/02 08:27:36;;;;;;;4.90;3.40;;;5.20;99.90;;;;;;4981979;28;20468;-73
2024/02/02 08:30:02;;;;;;;6.67;4.00;;;5.10;99.90;;;;;;4986423;28;20519;-72
2024/02/02 08:32:27;;;;;;;15.27;3.90;;;5.10;99.90;;;;;;4989919;28;20460;-73
2024/02/02 08:34:53;;;;;;;10.60;4.43;;;5.20;99.90;;;;;;4984260;28;20215;-73
2024/02/02 08:37:19;;;;;;;7.10;3.80;;;5.20;99.90;;;;;;4985079;28;20218;-73
2024/02/02 08:39:45;;;;;;;10.17;4.80;;;5.20;99.90;;;;;;4996433;28;20228;-70
2024/02/02 08:42:22;;;;;;;7.97;5.13;;;5.00;99.90;;;;;;4976532;28;20247;-73
2024/02/02 08:44:50;;;;;;;7.70;5.17;;;5.00;99.90;;;;;;4993476;28;20221;-73
2024/02/02 08:47:16;;;;;;;10.37;4.60;;;5.00;99.90;;;;;;4993560;28;20468;-73
2024/02/02 08:49:56;;;;;;;6.33;4.20;;;5.00;99.90;;;;;;4997962;28;20543;-73
2024/02/02 08:52:32;;;;;;;9.77;5.13;;;5.00;99.90;;;;;;5001072;28;20452;-73
2024/02/02 08:55:02;;;;;;;8.67;5.20;;;5.10;99.90;;;;;;5031341;28;20463;-73
2024/02/02 08:57:30;;;;;;;13.23;5.17;;;5.10;99.90;;;;;;4970587;28;20465;-73
2024/02/02 09:00:04;;;;;;;7.27;5.60;;;5.00;99.90;;;;;;4998796;28;20464;-74
2024/02/02 09:02:47;;;;;;;7.70;4.83;;;5.10;99.90;;;;;;5000805;28;20500;-72
2024/02/02 09:05:24;;;;;;;9.33;4.70;;;5.00;99.90;;;;;;4966232;28;20468;-73
2024/02/02 09:08:30;;;;;;;8.23;4.90;;;5.00;99.90;;;;;;5001441;28;20523;-72
2024/02/02 09:10:58;;;;;;;12.40;5.30;;;5.10;99.90;;;;;;5000370;28;20468;-72
2024/02/02 09:13:32;;;;;;;15.83;8.00;;;5.10;99.90;;;;;;4999368;28;20472;-74
2024/02/02 09:15:58;;;;;;;21.13;13.80;;;5.20;99.90;;;;;;4984871;28;20460;-73
2024/02/02 09:18:32;;;;;;;18.40;12.43;;;5.20;99.90;;;;;;5005185;28;20991;-74
2024/02/02 09:20:59;;;;;;;19.43;9.73;;;5.30;99.90;;;;;;5004082;28;20229;-73
2024/02/02 09:23:25;;;;;;;14.90;7.40;;;5.40;99.90;;;;;;5005281;28;20465;-74
2024/02/02 09:25:50;;;;;;;11.90;6.30;;;5.50;99.90;;;;;;5004842;28;20507;-73
2024/02/02 09:28:25;;;;;;;12.20;6.73;;;5.60;99.90;;;;;;5008833;28;20460;-73
2024/02/02 09:31:03;;;;;;;13.57;6.20;;;5.70;99.90;;;;;;5003968;28;20232;-73
2024/02/02 09:33:31;;;;;;;9.43;6.37;;;5.80;99.90;;;;;;5015852;28;20461;-73
2024/02/02 09:35:59;;;;;;;10.80;6.00;;;5.90;99.90;;;;;;5004945;28;20457;-72
2024/02/02 09:38:25;;;;;;;11.13;5.70;;;6.10;99.90;;;;;;5005620;28;20539;-73
2024/02/02 09:41:00;;;;;;;10.03;5.50;;;6.20;99.90;;;;;;5008717;28;20460;-73
2024/02/02 09:43:48;;;;;;;7.70;5.40;;;6.40;99.90;;;;;;5006030;28;20545;-74
2024/02/02 09:46:27;;;;;;;7.20;4.80;;;6.50;99.90;;;;;;5000664;28;20472;-73
2024/02/02 09:49:22;;;;;;;10.10;5.90;;;6.60;99.90;;;;;;4998898;28;21070;-74
2024/02/02 09:51:57;;;;;;;9.73;5.87;;;6.70;99.90;;;;;;4987925;28;20530;-73
2024/02/02 09:54:47;;;;;;;9.33;6.00;;;6.70;99.90;;;;;;4985990;28;20468;-74
2024/02/02 09:57:49;;;;;;;17.47;6.60;;;6.80;99.90;;;;;;5002525;28;20460;-73
2024/02/02 10:00:44;;;;;;;14.87;7.83;;;6.80;99.90;;;;;;5004625;28;20444;-73
2024/02/02 10:03:43;;;;;;;11.27;6.53;;;7.00;99.90;;;;;;5004451;28;20475;-73
2024/02/02 10:06:12;;;;;;;17.23;6.53;;;7.20;99.90;;;;;;5020011;28;20465;-74
2024/02/02 10:08:57;;;;;;;11.00;6.70;;;7.40;99.90;;;;;;4999955;28;20460;-74
2024/02/02 10:11:49;;;;;;;21.17;11.50;;;7.40;99.90;;;;;;5000479;28;20503;-75
2024/02/02 10:14:18;;;;;;;16.67;9.73;;;7.50;99.90;;;;;;4989130;28;20456;-73
2024/02/02 10:17:22;;;;;;;9.23;5.37;;;7.50;99.90;;;;;;5004929;28;20460;-74
2024/02/02 10:20:03;;;;;;;9.57;5.73;;;7.50;99.90;;;;;;4978674;28;20467;-74
2024/02/02 10:22:48;;;;;;;13.50;6.50;;;7.60;99.90;;;;;;5010730;28;20457;-74
2024/02/02 10:25:52;;;;;;;9.30;5.83;;;7.70;99.90;;;;;;5007051;28;20455;-74
2024/02/02 10:28:29;;;;;;;14.37;5.47;;;7.70;99.90;;;;;;4980329;28;20514;-74
2024/02/02 10:31:16;;;;;;;10.63;5.73;;;7.70;99.90;;;;;;5000560;28;20464;-73
2024/02/02 10:34:03;;;;;;;14.77;5.83;;;7.70;99.90;;;;;;4981958;28;20504;-74
2024/02/02 10:36:48;;;;;;;12.37;6.03;;;7.80;99.90;;;;;;4987188;28;20461;-74
2024/02/02 10:39:35;;;;;;;8.20;5.83;;;7.90;99.90;;;;;;4991423;28;20495;-73
2024/02/02 10:42:28;;;;;;;12.60;5.17;;;7.90;99.90;;;;;;5018592;28;20463;-74
2024/02/02 10:45:08;;;;;;;14.13;5.70;;;7.90;99.90;;;;;;4998093;28;20555;-74
2024/02/02 10:47:52;;;;;;;14.00;5.50;;;7.90;99.90;;;;;;4969987;28;20457;-74
2024/02/02 10:50:27;;;;;;;8.63;5.03;;;8.00;99.90;;;;;;4995030;28;20537;-74
2024/02/02 10:53:02;;;;;;;13.17;7.77;;;8.00;99.90;;;;;;4997463;28;20434;-73
2024/02/02 10:55:52;;;;;;;15.43;10.30;;;8.10;99.90;;;;;;5003263;28;20468;-74
2024/02/02 10:58:31;;;;;;;14.60;8.80;;;8.10;99.90;;;;;;4988797;28;20526;-73
2024/02/02 11:01:29;;;;;;;9.10;6.37;;;8.10;99.90;;;;;;5003903;28;20469;-74
2024/02/02 11:04:13;;;;;;;8.80;4.57;;;8.20;99.90;;;;;;4996222;28;20461;-74
2024/02/02 11:06:57;;;;;;;10.83;5.10;;;8.30;99.90;;;;;;5004085;28;20483;-74
2024/02/02 11:09:53;;;;;;;8.53;4.40;;;8.30;99.90;;;;;;4996596;28;20454;-74
2024/02/02 11:12:49;;;;;;;8.50;4.77;;;8.30;99.90;;;;;;4984312;28;20468;-74
2024/02/02 11:15:24;;;;;;;11.90;4.43;;;8.30;99.90;;;;;;4994868;28;20465;-74
2024/02/02 11:18:27;;;;;;;11.67;3.90;;;8.30;99.90;;;;;;4996779;28;20967;-73
2024/02/02 11:20:53;;;;;;;8.10;4.10;;;8.30;99.90;;;;;;4963299;28;20450;-73
2024/02/02 11:23:38;;;;;;;8.30;3.47;;;8.40;99.90;;;;;;4980719;28;20500;-73
2024/02/02 11:26:19;;;;;;;6.30;3.60;;;8.40;99.90;;;;;;5005960;28;20246;-74
2024/02/02 11:29:11;;;;;;;11.40;4.07;;;8.40;99.90;;;;;;4994331;28;20461;-73
2024/02/02 11:31:45;;;;;;;7.63;4.20;;;8.40;99.90;;;;;;4996434;28;20545;-73
2024/02/02 11:34:33;;;;;;;10.47;4.10;;;8.50;99.90;;;;;;5003652;28;20455;-73
2024/02/02 11:37:24;;;;;;;7.10;3.97;;;8.50;99.90;;;;;;5001567;28;20492;-73
2024/02/02 11:40:04;;;;;;;6.50;3.13;;;8.60;99.90;;;;;;5000981;28;20460;-74
2024/02/02 11:42:32;;;;;;;10.70;3.93;;;8.60;99.90;;;;;;5000047;28;20553;-74
2024/02/02 11:45:00;;;;;;;7.77;3.90;;;8.60;99.90;;;;;;5000890;28;20469;-73
2024/02/02 11:47:28;;;;;;;7.67;3.33;;;8.60;99.90;;;;;;4983558;28;20545;-74
2024/02/02 11:50:16;;;;;;;5.37;3.20;;;8.60;99.90;;;;;;4998673;28;20505;-72
2024/02/02 11:52:44;;;;;;;6.90;2.90;;;8.60;99.90;;;;;;4998844;28;20456;-74
2024/02/02 11:55:20;;;;;;;4.03;2.80;;;8.60;99.90;;;;;;5013380;28;20453;-73
2024/02/02 11:58:07;;;;;;;9.47;5.70;;;8.70;99.90;;;;;;5000806;28;21017;-74
2024/02/02 12:00:47;;;;;;;14.17;7.53;;;8.70;99.90;;;;;;4997635;28;20529;-74
2024/02/02 12:03:45;;;;;;;21.00;9.80;;;8.80;99.90;;;;;;5016736;28;20444;-74
2024/02/02 12:06:19;;;;;;;44.13;20.57;;;8.80;99.90;;;;;;4990695;28;20463;-73
2024/02/02 12:09:14;;;;;;;31.20;16.10;;;8.80;99.90;;;;;;5004267;28;20479;-73
2024/02/02 12:11:46;;;;;;;28.33;15.53;;;8.80;99.90;;;;;;4998006;28;20465;-73
2024/02/02 12:14:17;;;;;;;24.40;13.17;;;8.90;99.90;;;;;;5013807;28;20464;-73
2024/02/02 12:16:43;;;;;;;17.73;11.40;;;8.90;99.90;;;;;;5004539;28;20486;-73
2024/02/02 12:19:08;;;;;;;7.57;5.63;;;8.90;99.90;;;;;;5000861;28;20456;-73
2024/02/02 12:21:34;;;;;;;17.17;7.90;;;9.00;99.90;;;;;;5003590;28;20216;-73
2024/02/02 12:24:00;;;;;;;7.07;5.23;;;9.00;99.90;;;;;;4981421;28;20805;-74
2024/02/02 12:26:26;;;;;;;7.47;4.97;;;9.20;99.90;;;;;;4975071;28;20719;-73
2024/02/02 12:28:52;;;;;;;6.00;3.93;;;9.20;99.90;;;;;;4979231;28;20473;-74
2024/02/02 12:31:18;;;;;;;6.77;3.87;;;9.20;99.90;;;;;;4979592;28;20236;-74
2024/02/02 12:33:44;;;;;;;6.53;4.30;;;9.30;99.90;;;;;;4980425;28;20461;-73
2024/02/02 12:36:10;;;;;;;10.77;4.03;;;9.40;99.90;;;;;;4985596;28;20233;-74
2024/02/02 12:38:36;;;;;;;5.60;3.53;;;9.40;99.90;;;;;;4994786;28;20213;-73
2024/02/02 12:41:02;;;;;;;8.73;3.27;;;9.40;99.90;;;;;;4960685;28;20896;-73
2024/02/02 12:43:28;;;;;;;4.23;3.33;;;9.50;99.90;;;;;;4981520;28;20477;-73
2024/02/02 12:45:54;;;;;;;9.30;3.90;;;9.60;99.90;;;;;;4963553;28;20269;-73
2024/02/02 12:48:20;;;;;;;3.67;3.37;;;9.60;99.90;;;;;;4981114;28;20477;-73
2024/02/02 12:50:50;;;;;;;6.63;3.50;;;9.70;99.90;;;;;;4965346;28;20242;-72
2024/02/02 12:53:16;;;;;;;6.17;3.23;;;9.70;99.90;;;;;;4972623;28;20465;-74
2024/02/02 12:55:45;;;;;;;3.50;3.00;;;9.70;99.90;;;;;;4986248;28;20477;-73
2024/02/02 12:58:11;;;;;;;6.50;4.33;;;9.80;99.90;;;;;;4984750;28;20461;-73
2024/02/02 13:00:37;;;;;;;7.73;3.57;;;9.80;99.90;;;;;;4985978;28;20501;-74
2024/02/02 13:03:05;;;;;;;4.53;3.50;;;9.80;99.90;;;;;;4992291;28;20461;-74
2024/02/02 13:05:32;;;;;;;5.90;3.90;;;9.70;99.90;;;;;;4971565;28;20469;-74
2024/02/02 13:07:58;;;;;;;5.60;2.80;;;9.80;99.90;;;;;;4984243;28;20555;-73
2024/02/02 13:10:45;;;;;;;3.53;2.70;;;9.80;99.90;;;;;;4986664;28;20544;-73